Time;durP1;ratioP1;P1;durP2;ratioP2;P2;SDS_P1;SDS_P2;PMS_P1;PMS_P2;Temp;Humidity;BMP_temperature;BMP_pressure;BME280_temperature;BME280_humidity;BME280_pressure;Samples;Min_cycle;Max_cycle;Signal;HPM_P1;HPM_P2
2022/08/21 00:01:57;;;;;;;7.68;4.00;;;;;;;19.73;89.01;98350.63;5140756;27;20514;-94
2022/08/21 00:04:24;;;;;;;6.70;4.15;;;;;;;19.74;88.57;98354.22;5151017;27;20567;-94
2022/08/21 00:06:51;;;;;;;8.07;3.90;;;;;;;19.72;88.67;98364.25;5135085;28;20039;-94
2022/08/21 00:09:18;;;;;;;7.75;4.20;;;;;;;19.50;89.85;98342.31;5135045;28;20054;-94
2022/08/21 00:11:45;;;;;;;8.95;4.18;;;;;;;19.59;90.46;98359.66;5137979;27;20046;-94
2022/08/21 00:14:13;;;;;;;9.77;4.22;;;;;;;19.60;90.95;98379.41;5142928;27;20039;-95
2022/08/21 00:16:39;;;;;;;7.80;4.30;;;;;;;19.37;91.14;98346.84;5160129;27;20046;-92
2022/08/21 00:19:06;;;;;;;8.32;4.13;;;;;;;19.39;92.12;98366.47;5141468;27;20100;-94
2022/08/21 00:21:33;;;;;;;8.63;3.90;;;;;;;19.26;92.65;98350.28;5139570;27;20039;-93
2022/08/21 00:24:00;;;;;;;7.93;3.75;;;;;;;19.26;92.23;98365.59;5145902;27;20118;-93
2022/08/21 00:26:26;;;;;;;8.50;4.07;;;;;;;19.15;90.82;98351.97;5153956;27;20070;-94
2022/08/21 00:28:52;;;;;;;9.57;4.32;;;;;;;19.19;91.51;98366.97;5139663;27;20039;-94
2022/08/21 00:31:20;;;;;;;8.95;4.13;;;;;;;19.16;92.54;98377.97;5138930;27;20051;-93
2022/08/21 00:33:46;;;;;;;6.97;3.70;;;;;;;19.05;92.43;98358.00;5138904;27;20039;-93
2022/08/21 00:36:12;;;;;;;5.28;3.85;;;;;;;19.12;92.21;98373.75;5139284;27;20039;-94
2022/08/21 00:38:38;;;;;;;5.43;4.00;;;;;;;19.02;92.00;98355.53;5142170;27;20057;-93
2022/08/21 00:41:07;;;;;;;7.68;4.10;;;;;;;19.13;91.64;98368.28;5161484;27;20121;-93
2022/08/21 00:43:35;;;;;;;8.43;5.00;;;;;;;19.24;92.79;98370.22;5150900;27;20073;-94
2022/08/21 00:46:02;;;;;;;8.10;4.85;;;;;;;19.12;96.52;98361.13;5140484;27;20039;-94
2022/08/21 00:48:32;;;;;;;10.18;5.20;;;;;;;19.03;97.17;98351.84;5140845;27;20051;-94
2022/08/21 00:51:03;;;;;;;10.77;4.97;;;;;;;18.97;97.47;98349.56;5138690;27;20043;-93
2022/08/21 00:53:30;;;;;;;10.75;5.00;;;;;;;19.07;97.69;98372.22;5138662;27;20087;-95
2022/08/21 00:55:57;;;;;;;6.93;4.65;;;;;;;19.02;97.91;98370.84;5138871;27;20049;-94
2022/08/21 01:01:50;;;;;;;10.07;4.95;;;;;;;19.09;97.58;98367.59;5138322;27;20043;-94
2022/08/21 01:04:19;;;;;;;8.32;4.63;;;;;;;19.02;98.45;98374.38;5138678;27;20063;-94
2022/08/21 01:06:45;;;;;;;8.38;4.85;;;;;;;19.05;96.55;98382.25;5138697;27;20055;-94
2022/08/21 01:09:12;;;;;;;6.53;4.43;;;;;;;18.89;95.67;98349.25;5138342;27;20100;-94
2022/08/21 01:11:38;;;;;;;7.93;4.50;;;;;;;18.97;96.08;98368.44;5138254;27;20036;-94
2022/08/21 01:14:04;;;;;;;5.75;3.80;;;;;;;18.92;95.63;98346.34;5138105;27;20046;-94
2022/08/21 01:16:31;;;;;;;7.55;4.85;;;;;;;18.95;95.84;98354.19;5138390;27;20043;-95
2022/08/21 01:18:56;;;;;;;10.10;5.10;;;;;;;18.98;95.71;98354.00;5138373;27;20051;-94
2022/08/21 01:21:26;;;;;;;6.55;4.60;;;;;;;19.07;95.71;98369.53;5138348;27;20053;-94
2022/08/21 01:23:53;;;;;;;7.25;4.80;;;;;;;19.01;95.68;98369.09;5138190;27;20039;-95
2022/08/21 01:26:25;;;;;;;7.80;4.72;;;;;;;18.85;97.07;98350.41;5137857;27;20388;-94
2022/08/21 01:28:57;;;;;;;7.07;4.68;;;;;;;18.76;97.45;98348.28;5138632;27;20492;-94
2022/08/21 01:31:25;;;;;;;9.65;5.10;;;;;;;18.74;97.53;98345.72;5138072;27;20043;-94
2022/08/21 01:33:51;;;;;;;11.27;6.03;;;;;;;18.83;97.68;98355.03;5138519;27;20134;-93
2022/08/21 01:36:18;;;;;;;7.97;5.32;;;;;;;18.71;98.80;98345.91;5135867;27;20508;-94
2022/08/21 01:38:46;;;;;;;7.82;4.95;;;;;;;18.75;99.51;98360.91;5119983;27;20497;-94
2022/08/21 01:41:13;;;;;;;6.80;4.55;;;;;;;18.73;99.41;98361.97;5127149;27;20035;-93
2022/08/21 01:43:40;;;;;;;8.27;5.13;;;;;;;18.62;100.00;98358.16;5117395;28;20100;-93
2022/08/21 01:46:06;;;;;;;6.35;4.95;;;;;;;18.58;100.00;98345.88;5117187;28;20071;-93
2022/08/21 01:48:32;;;;;;;9.82;4.93;;;;;;;18.68;99.90;98373.91;5117158;28;20052;-93
2022/08/21 01:50:59;;;;;;;7.32;4.68;;;;;;;18.45;100.00;98328.81;5117505;28;20046;-94
2022/08/21 01:53:25;;;;;;;9.10;4.75;;;;;;;18.59;100.00;98360.22;5116859;28;20044;-94
2022/08/21 01:55:52;;;;;;;11.82;7.22;;;;;;;18.53;100.00;98345.31;5117273;28;20151;-94
2022/08/21 01:58:18;;;;;;;8.82;5.10;;;;;;;18.70;98.52;98348.72;5116612;28;20118;-93
2022/08/21 02:00:44;;;;;;;8.05;5.70;;;;;;;18.57;99.06;98344.16;5124608;27;20035;-95
2022/08/21 02:03:10;;;;;;;8.48;5.20;;;;;;;18.57;98.93;98349.53;5137384;27;20042;-94
2022/08/21 02:05:36;;;;;;;7.38;5.13;;;;;;;18.37;99.64;98326.63;5131215;27;20543;-93
2022/08/21 02:08:03;;;;;;;6.53;5.03;;;;;;;18.41;99.56;98341.63;5118213;27;20043;-93
2022/08/21 02:10:31;;;;;;;9.35;5.00;;;;;;;18.38;98.64;98332.88;5137051;27;20112;-93
2022/08/21 02:13:00;;;;;;;10.40;5.47;;;;;;;18.37;98.41;98341.94;5135718;27;20040;-94
2022/08/21 02:15:27;;;;;;;10.57;4.63;;;;;;;18.42;98.72;98342.47;5116296;28;20067;-93
2022/08/21 02:17:54;;;;;;;7.72;4.88;;;;;;;18.40;98.12;98347.09;5120878;27;20051;-93
2022/08/21 02:20:24;;;;;;;7.53;5.30;;;;;;;18.43;98.45;98363.94;5128583;27;20054;-94
2022/08/21 02:22:49;;;;;;;7.10;5.30;;;;;;;18.26;98.54;98340.78;5130754;27;20127;-94
2022/08/21 02:25:16;;;;;;;7.93;5.50;;;;;;;18.17;98.67;98336.03;5137006;27;20512;-94
2022/08/21 02:27:46;;;;;;;7.28;4.93;;;;;;;18.08;99.83;98335.75;5136121;27;20063;-95
2022/08/21 02:30:15;;;;;;;7.60;4.60;;;;;;;18.06;98.80;98334.03;5136886;27;20064;-93
2022/08/21 02:32:42;;;;;;;6.30;4.63;;;;;;;18.11;100.00;98357.94;5136934;27;20047;-94
2022/08/21 02:35:09;;;;;;;8.52;5.00;;;;;;;18.00;100.00;98344.28;5115715;28;20040;-93
2022/08/21 02:37:43;;;;;;;9.38;4.95;;;;;;;18.11;100.00;98360.63;5115332;28;20497;-94
2022/08/21 02:40:11;;;;;;;9.50;4.78;;;;;;;18.13;100.00;98355.13;5115902;28;20497;-93
2022/08/21 02:42:38;;;;;;;7.47;4.47;;;;;;;18.03;100.00;98339.59;5116710;28;20054;-94
2022/08/21 02:45:06;;;;;;;8.95;4.60;;;;;;;18.02;100.00;98347.75;5115737;28;20047;-94
2022/08/21 02:47:33;;;;;;;8.20;4.82;;;;;;;17.88;100.00;98329.81;5115897;28;20046;-94
2022/08/21 02:49:59;;;;;;;6.20;4.68;;;;;;;17.98;100.00;98357.84;5115608;28;20043;-93
2022/08/21 02:52:25;;;;;;;7.32;5.05;;;;;;;17.93;100.00;98353.72;5115478;28;20084;-94
2022/08/21 02:54:51;;;;;;;8.07;4.90;;;;;;;17.88;100.00;98337.88;5115938;28;20397;-94
2022/08/21 02:57:17;;;;;;;9.30;5.07;;;;;;;17.82;100.00;98341.81;5099006;28;20040;-94
2022/08/21 02:59:43;;;;;;;9.35;5.03;;;;;;;17.88;100.00;98353.16;5094964;28;20044;-95
2022/08/21 03:02:11;;;;;;;10.55;4.85;;;;;;;17.93;100.00;98356.41;5109911;28;20063;-93
2022/08/21 03:04:38;;;;;;;8.47;5.13;;;;;;;17.95;100.00;98351.81;5114776;28;20043;-92
2022/08/21 03:07:04;;;;;;;9.07;5.20;;;;;;;17.97;100.00;98356.13;5114745;28;20036;-93
2022/08/21 03:09:30;;;;;;;7.38;5.03;;;;;;;17.93;100.00;98353.72;5114995;28;20131;-93
2022/08/21 03:11:57;;;;;;;8.70;5.30;;;;;;;17.76;100.00;98344.88;5115290;28;20042;-94
2022/08/21 03:14:23;;;;;;;6.70;4.93;;;;;;;17.77;100.00;98345.75;5115088;28;20040;-94
2022/08/21 03:16:49;;;;;;;10.73;5.43;;;;;;;17.69;100.00;98334.59;5114845;28;20515;-93
2022/08/21 03:19:15;;;;;;;7.72;5.20;;;;;;;17.81;100.00;98348.13;5115082;28;20044;-93
2022/08/21 03:21:43;;;;;;;9.55;5.50;;;;;;;17.71;100.00;98333.53;5115296;28;20039;-95
2022/08/21 03:24:09;;;;;;;8.90;5.20;;;;;;;17.74;100.00;98343.22;5115243;28;20043;-94
2022/08/21 03:26:35;;;;;;;8.30;4.85;;;;;;;17.75;100.00;98342.28;5115881;28;20048;-94
2022/08/21 03:29:01;;;;;;;10.85;4.93;;;;;;;17.68;100.00;98331.06;5115201;28;20500;-94
2022/08/21 03:31:30;;;;;;;11.18;5.32;;;;;;;17.78;100.00;98344.75;5126864;27;20062;-93
2022/08/21 03:33:56;;;;;;;8.60;6.18;;;;;;;17.63;100.00;98336.72;5136425;27;20508;-92
2022/08/21 03:36:22;;;;;;;9.27;5.45;;;;;;;17.54;100.00;98326.53;5145876;27;20066;-94
2022/08/21 03:38:50;;;;;;;9.32;5.40;;;;;;;17.47;100.00;98321.63;5156375;27;20046;-92
2022/08/21 03:41:16;;;;;;;7.40;5.07;;;;;;;17.52;100.00;98330.28;5156498;27;20499;-93
2022/08/21 03:43:42;;;;;;;8.65;5.47;;;;;;;17.70;100.00;98347.94;5145909;27;20066;-95
2022/08/21 03:46:08;;;;;;;10.10;5.70;;;;;;;17.62;100.00;98344.88;5135588;28;20130;-94
2022/08/21 03:48:35;;;;;;;12.77;6.45;;;;;;;17.52;100.00;98344.59;5148305;27;20039;-93
2022/08/21 03:51:02;;;;;;;8.38;6.18;;;;;;;17.43;100.00;98339.78;5134072;27;20039;-93
2022/08/21 03:53:29;;;;;;;10.50;6.20;;;;;;;17.22;100.00;98336.59;5146663;27;20044;-92
2022/08/21 03:55:58;;;;;;;11.20;6.00;;;;;;;17.22;100.00;98361.66;5134840;27;20118;-92
2022/08/21 03:58:26;;;;;;;8.50;6.07;;;;;;;17.04;100.00;98350.19;5147534;27;20039;-93
2022/08/21 04:00:57;;;;;;;9.40;6.10;;;;;;;17.03;100.00;98364.56;5126024;27;20035;-92
2022/08/21 04:03:23;;;;;;;10.18;6.32;;;;;;;16.97;100.00;98354.19;5131157;27;20465;-93
2022/08/21 04:05:49;;;;;;;11.23;6.38;;;;;;;17.00;100.00;98363.88;5143197;27;20126;-94
2022/08/21 04:08:18;;;;;;;11.60;6.93;;;;;;;16.92;100.00;98345.56;5146832;27;20392;-93
2022/08/21 04:10:47;;;;;;;9.27;6.30;;;;;;;17.12;100.00;98367.66;5140874;27;20042;-93
2022/08/21 04:13:14;;;;;;;8.85;6.03;;;;;;;17.11;100.00;98356.06;5132538;27;20042;-93
2022/08/21 04:15:41;;;;;;;8.65;6.18;;;;;;;17.15;100.00;98351.34;5139325;27;20043;-93
2022/08/21 04:18:08;;;;;;;9.85;6.88;;;;;;;17.12;100.00;98347.03;5144287;27;20066;-93
2022/08/21 04:20:34;;;;;;;10.82;6.85;;;;;;;17.13;100.00;98343.41;5138109;27;20047;-93
2022/08/21 04:23:01;;;;;;;12.20;7.00;;;;;;;17.25;100.00;98356.06;5145149;27;20067;-93
2022/08/21 04:25:28;;;;;;;8.55;5.78;;;;;;;17.17;100.00;98349.44;5158412;27;20541;-93
2022/08/21 04:27:54;;;;;;;9.93;6.10;;;;;;;17.23;100.00;98343.69;5139587;27;20046;-93
2022/08/21 04:30:22;;;;;;;10.98;6.15;;;;;;;17.40;100.00;98361.47;5118575;28;20048;-93
2022/08/21 04:32:50;;;;;;;10.43;6.00;;;;;;;17.36;100.00;98352.72;5135309;27;20089;-93
2022/08/21 04:35:18;;;;;;;7.18;5.65;;;;;;;17.42;100.00;98344.28;5139054;27;20071;-94
2022/08/21 04:37:44;;;;;;;7.97;5.25;;;;;;;17.52;100.00;98338.34;5139194;27;20488;-94
2022/08/21 04:40:13;;;;;;;7.47;5.75;;;;;;;17.68;100.00;98363.31;5138800;27;20088;-94
2022/08/21 04:42:44;;;;;;;8.03;5.67;;;;;;;17.61;100.00;98351.22;5139135;27;20039;-94
2022/08/21 04:45:15;;;;;;;8.57;5.68;;;;;;;17.71;100.00;98367.63;5138836;27;20050;-94
2022/08/21 04:47:43;;;;;;;8.80;5.50;;;;;;;17.57;100.00;98344.31;5123635;27;20135;-94
2022/08/21 04:50:09;;;;;;;8.85;5.32;;;;;;;17.79;100.00;98368.88;5139123;27;20039;-95
2022/08/21 04:52:35;;;;;;;8.77;5.47;;;;;;;17.83;100.00;98346.25;5139088;27;20117;-94
2022/08/21 04:55:01;;;;;;;15.05;7.55;;;;;;;17.79;100.00;98342.00;5139028;27;20068;-95
2022/08/21 04:57:27;;;;;;;6.82;4.90;;;;;;;17.93;100.00;98354.56;5138706;27;20399;-94
2022/08/21 04:59:53;;;;;;;7.18;5.20;;;;;;;17.89;100.00;98347.69;5137878;27;20122;-95
2022/08/21 05:02:21;;;;;;;9.27;4.97;;;;;;;17.98;100.00;98346.25;5138764;27;20046;-95
2022/08/21 05:04:52;;;;;;;8.38;5.10;;;;;;;18.12;100.00;98381.19;5138629;27;20107;-94
2022/08/21 05:07:22;;;;;;;7.15;5.18;;;;;;;18.16;99.93;98380.03;5138559;27;20134;-94
2022/08/21 05:09:49;;;;;;;8.60;5.30;;;;;;;18.20;98.69;98375.31;5139101;27;20062;-94
2022/08/21 05:12:15;;;;;;;8.80;5.40;;;;;;;18.01;99.46;98370.25;5138616;27;20463;-93
2022/08/21 05:14:42;;;;;;;8.88;5.55;;;;;;;17.88;99.69;98359.41;5137943;27;20046;-94
2022/08/21 05:17:08;;;;;;;10.57;5.35;;;;;;;17.91;99.96;98352.94;5138007;27;20043;-94
2022/08/21 05:19:35;;;;;;;7.68;5.22;;;;;;;18.00;100.00;98360.44;5137871;27;20049;-95
2022/08/21 05:22:02;;;;;;;7.47;4.90;;;;;;;18.07;98.43;98359.09;5137753;27;20056;-95
2022/08/21 05:24:28;;;;;;;8.77;5.43;;;;;;;17.97;98.28;98345.34;5137716;27;20039;-95
2022/08/21 05:26:54;;;;;;;6.70;5.25;;;;;;;18.09;97.19;98354.47;5137769;27;20043;-94
2022/08/21 05:29:21;;;;;;;9.52;5.53;;;;;;;18.23;96.79;98362.50;5137855;27;20050;-95
2022/08/21 05:31:48;;;;;;;7.45;5.18;;;;;;;18.33;95.94;98360.09;5128895;27;20450;-94
2022/08/21 05:34:17;;;;;;;9.23;4.75;;;;;;;18.48;95.21;98358.22;5116805;28;20040;-94
2022/08/21 05:36:43;;;;;;;9.13;5.20;;;;;;;18.62;94.88;98357.31;5116958;28;20115;-95
2022/08/21 05:39:10;;;;;;;8.07;5.13;;;;;;;18.67;93.41;98345.28;5116992;28;20074;-95
2022/08/21 05:41:36;;;;;;;6.68;4.60;;;;;;;18.93;92.34;98357.97;5116869;28;20051;-94
2022/08/21 05:44:03;;;;;;;7.63;4.97;;;;;;;19.04;91.38;98348.19;5116935;28;20039;-94
2022/08/21 05:46:29;;;;;;;6.43;4.43;;;;;;;19.36;90.55;98365.81;5116918;28;20044;-94
2022/08/21 05:48:55;;;;;;;7.45;4.78;;;;;;;19.50;89.10;98358.47;5116735;28;20039;-94
2022/08/21 05:51:21;;;;;;;7.20;4.55;;;;;;;19.78;86.94;98375.47;5116520;28;20093;-95
2022/08/21 05:53:47;;;;;;;8.15;5.03;;;;;;;19.81;85.50;98348.25;5117388;28;20043;-95
2022/08/21 05:56:15;;;;;;;6.85;4.90;;;;;;;19.79;85.48;98360.97;5116937;28;20047;-93
2022/08/21 05:58:41;;;;;;;9.02;4.80;;;;;;;19.35;87.24;98354.16;5117044;28;20493;-94
2022/08/21 06:01:08;;;;;;;10.48;5.55;;;;;;;19.23;87.79;98358.56;5116205;28;20044;-94
2022/08/21 06:03:36;;;;;;;7.72;4.90;;;;;;;19.29;87.73;98370.75;5115874;28;20035;-95
2022/08/21 06:06:03;;;;;;;7.60;4.88;;;;;;;19.15;87.89;98341.19;5116038;28;20067;-94
2022/08/21 06:08:29;;;;;;;7.53;5.35;;;;;;;19.14;86.93;98351.13;5116777;28;20051;-94
2022/08/21 06:10:57;;;;;;;7.72;5.00;;;;;;;19.15;87.98;98344.78;5116358;28;20358;-94
2022/08/21 06:13:26;;;;;;;8.38;4.97;;;;;;;19.37;85.10;98343.28;5115859;28;20084;-95
2022/08/21 06:16:02;;;;;;;10.80;5.75;;;;;;;19.74;85.17;98365.84;5116437;28;20062;-95
2022/08/21 06:18:28;;;;;;;10.25;5.07;;;;;;;19.88;83.12;98345.97;5116282;28;20039;-95
2022/08/21 06:20:54;;;;;;;8.75;4.72;;;;;;;20.03;82.06;98347.56;5116210;28;20053;-95
2022/08/21 06:23:20;;;;;;;8.25;4.60;;;;;;;20.13;81.35;98345.06;5116513;28;20067;-95
2022/08/21 06:25:46;;;;;;;6.45;4.88;;;;;;;20.17;79.88;98365.47;5115920;28;20040;-95
2022/08/21 06:28:12;;;;;;;7.35;4.30;;;;;;;20.27;78.84;98358.41;5116214;28;20043;-95
2022/08/21 06:30:39;;;;;;;8.73;4.50;;;;;;;20.29;77.19;98332.16;5116071;28;20040;-94
2022/08/21 06:33:06;;;;;;;9.73;4.78;;;;;;;20.59;77.43;98357.03;5135781;27;20138;-94
2022/08/21 06:35:32;;;;;;;9.05;4.40;;;;;;;20.61;77.35;98347.84;5132654;27;20054;-94
2022/08/21 06:37:58;;;;;;;6.95;4.50;;;;;;;20.86;74.75;98360.38;5116070;28;20032;-94
2022/08/21 06:40:25;;;;;;;8.93;4.78;;;;;;;21.05;74.22;98356.25;5126818;27;20068;-95
2022/08/21 06:42:51;;;;;;;9.20;4.35;;;;;;;21.18;72.88;98350.75;5136524;27;20051;-94
2022/08/21 06:45:17;;;;;;;8.48;4.35;;;;;;;21.32;72.35;98366.78;5122693;27;20089;-94
2022/08/21 06:47:44;;;;;;;6.68;3.80;;;;;;;21.38;72.07;98343.78;5136534;27;20531;-95
2022/08/21 06:50:10;;;;;;;7.50;4.30;;;;;;;21.61;71.20;98347.44;5137373;27;20096;-96
2022/08/21 06:52:37;;;;;;;8.57;4.35;;;;;;;21.75;69.85;98330.94;5136438;27;20043;-95
2022/08/21 06:55:05;;;;;;;9.75;4.40;;;;;;;21.76;69.52;98359.75;5136223;27;20043;-96
2022/08/21 06:57:31;;;;;;;10.10;4.13;;;;;;;21.85;69.51;98350.03;5136752;27;20085;-95
2022/08/21 06:59:57;;;;;;;9.02;4.78;;;;;;;21.93;69.65;98356.56;5136451;27;20039;-95
2022/08/21 07:02:23;;;;;;;6.43;4.30;;;;;;;21.95;70.99;98345.63;5136911;27;20035;-95
2022/08/21 07:04:51;;;;;;;7.20;4.53;;;;;;;21.90;71.94;98355.94;5137358;27;20039;-94
2022/08/21 07:07:17;;;;;;;9.23;4.85;;;;;;;21.86;70.89;98349.03;5132584;27;20047;-95
2022/08/21 07:09:43;;;;;;;7.68;4.45;;;;;;;21.90;70.05;98331.56;5136659;27;20035;-96
2022/08/21 07:12:09;;;;;;;6.20;4.28;;;;;;;22.09;70.67;98355.31;5136462;27;20046;-95
2022/08/21 07:14:35;;;;;;;8.27;4.40;;;;;;;22.08;69.59;98357.19;5127171;27;20456;-93
2022/08/21 07:17:02;;;;;;;6.72;4.70;;;;;;;21.72;68.83;98344.75;5122958;27;20108;-95
2022/08/21 07:19:28;;;;;;;7.43;4.20;;;;;;;21.85;69.73;98345.47;5117102;28;20035;-94
2022/08/21 07:22:00;;;;;;;7.35;4.57;;;;;;;21.76;70.59;98343.50;5118062;28;20047;-95
2022/08/21 07:24:25;;;;;;;6.63;4.20;;;;;;;22.14;69.80;98355.78;5135921;27;20131;-94
2022/08/21 07:26:51;;;;;;;7.20;4.20;;;;;;;22.49;66.86;98338.56;5137577;27;20134;-93
2022/08/21 07:29:18;;;;;;;7.30;4.18;;;;;;;22.75;64.45;98344.50;5127137;27;20384;-96
2022/08/21 07:31:44;;;;;;;7.65;4.32;;;;;;;22.74;63.89;98334.66;5116806;27;20058;-94
2022/08/21 07:34:12;;;;;;;8.10;3.85;;;;;;;22.97;64.68;98349.84;5125181;27;21664;-95
2022/08/21 07:36:38;;;;;;;7.28;3.78;;;;;;;23.20;63.54;98325.31;5117688;28;20131;-95
2022/08/21 07:39:05;;;;;;;6.07;4.03;;;;;;;23.51;63.05;98330.84;5117368;28;20067;-95
2022/08/21 07:41:31;;;;;;;6.03;3.88;;;;;;;23.66;61.12;98320.47;5115996;28;20524;-95
2022/08/21 07:43:58;;;;;;;5.97;4.07;;;;;;;23.87;60.68;98325.88;5129889;28;20042;-95
2022/08/21 07:46:25;;;;;;;7.68;3.97;;;;;;;24.08;59.19;98329.41;5130442;28;20079;-95
2022/08/21 07:48:51;;;;;;;6.40;3.70;;;;;;;23.93;60.21;98331.63;5116839;28;20525;-95
2022/08/21 07:51:18;;;;;;;7.15;3.80;;;;;;;24.03;60.19;98330.81;5116596;28;20054;-94
2022/08/21 07:53:48;;;;;;;8.00;4.07;;;;;;;24.27;59.66;98328.63;5118619;28;20397;-95
2022/08/21 07:56:16;;;;;;;8.10;3.80;;;;;;;24.45;59.43;98315.19;5133572;28;20554;-95
2022/08/21 07:58:43;;;;;;;7.45;3.97;;;;;;;24.61;58.50;98330.97;5117511;28;20043;-96
2022/08/21 08:01:09;;;;;;;7.65;3.83;;;;;;;24.65;58.42;98332.41;5119271;28;20057;-94
2022/08/21 08:03:35;;;;;;;5.32;3.70;;;;;;;24.74;58.56;98317.97;5118648;28;20082;-94
2022/08/21 08:06:04;;;;;;;9.30;4.82;;;;;;;24.59;57.49;98314.84;5126694;28;20097;-94
2022/08/21 08:08:29;;;;;;;;;;;;;;;24.62;58.61;98335.44;5127399;28;20501;-93
2022/08/21 08:10:57;;;;;;;6.95;3.92;;;;;;;24.23;59.75;98304.56;5117575;28;20011;-95
2022/08/21 08:13:25;;;;;;;9.60;4.38;;;;;;;24.54;60.69;98316.25;5117377;28;20059;-94
2022/08/21 08:15:51;;;;;;;10.98;4.65;;;;;;;24.77;59.15;98312.25;5097191;28;20048;-95
2022/08/21 08:18:17;;;;;;;5.97;4.10;;;;;;;24.51;59.49;98330.97;5096411;28;20043;-95
2022/08/21 08:20:43;;;;;;;7.38;4.30;;;;;;;24.61;60.81;98301.06;5096877;28;20093;-94
2022/08/21 08:23:10;;;;;;;6.65;4.22;;;;;;;25.09;57.70;98322.00;5106579;28;20392;-96
2022/08/21 08:25:36;;;;;;;7.78;4.03;;;;;;;25.15;57.04;98310.50;5116938;28;20039;-94
2022/08/21 08:28:03;;;;;;;6.97;3.75;;;;;;;25.36;55.24;98321.25;5117713;28;20108;-96
2022/08/21 08:30:30;;;;;;;7.15;4.35;;;;;;;25.69;55.45;98326.34;5117613;28;20042;-93
2022/08/21 08:32:57;;;;;;;7.15;4.13;;;;;;;25.98;55.20;98324.41;5151063;27;20051;-94
2022/08/21 08:35:24;;;;;;;8.13;4.25;;;;;;;26.14;54.25;98307.41;5163672;27;20070;-95
2022/08/21 08:37:51;;;;;;;7.00;4.18;;;;;;;26.20;53.85;98287.72;5163516;27;20066;-95
2022/08/21 08:40:28;;;;;;;6.85;4.68;;;;;;;26.63;53.76;98320.75;5145195;27;20044;-96
2022/08/21 08:43:13;;;;;;;5.10;3.80;;;;;;;26.67;52.89;98289.44;5144102;27;20396;-95
2022/08/21 08:45:46;;;;;;;5.28;4.07;;;;;;;27.02;52.10;98304.06;5141994;27;20031;-95
2022/08/21 08:48:17;;;;;;;8.27;3.83;;;;;;;26.67;51.98;98281.25;5143357;27;20047;-96
2022/08/21 08:50:48;;;;;;;8.15;3.70;;;;;;;26.82;52.10;98290.59;5143326;27;20050;-96
2022/08/21 08:53:20;;;;;;;5.90;3.85;;;;;;;26.99;51.11;98288.03;5144181;27;20039;-94
2022/08/21 08:55:48;;;;;;;8.68;4.43;;;;;;;27.19;51.22;98283.22;5148305;27;20039;-96
2022/08/21 08:58:20;;;;;;;7.15;4.05;;;;;;;27.44;50.66;98298.81;5144900;27;20480;-96
2022/08/21 09:00:50;;;;;;;8.15;4.22;;;;;;;27.27;50.81;98277.03;5160751;27;20042;-95
2022/08/21 09:03:17;;;;;;;8.45;4.25;;;;;;;26.91;51.16;98277.88;5164515;27;20042;-96
2022/08/21 09:05:48;;;;;;;7.28;4.20;;;;;;;27.10;50.88;98287.78;5162359;27;20046;-94
2022/08/21 09:08:36;;;;;;;6.45;4.00;;;;;;;27.35;50.52;98297.06;5146500;27;20039;-96
2022/08/21 09:11:07;;;;;;;7.78;4.07;;;;;;;27.47;49.45;98296.78;5140316;27;20100;-95
2022/08/21 09:13:47;;;;;;;6.15;4.00;;;;;;;27.26;50.12;98270.72;5141819;27;20043;-96
2022/08/21 09:16:24;;;;;;;5.65;3.97;;;;;;;27.42;49.12;98273.53;5139402;27;20043;-95
2022/08/21 09:19:03;;;;;;;8.75;4.10;;;;;;;27.41;50.38;98288.22;5140794;27;20043;-96
2022/08/21 09:21:37;;;;;;;5.03;3.75;;;;;;;27.50;49.65;98269.13;5156557;27;20095;-95
2022/08/21 09:24:21;;;;;;;8.48;3.92;;;;;;;27.64;46.77;98266.66;5154172;27;20047;-94
2022/08/21 09:26:54;;;;;;;6.53;3.65;;;;;;;28.05;48.23;98275.09;5140700;27;20077;-94
2022/08/21 09:29:25;;;;;;;8.25;4.25;;;;;;;28.18;46.70;98254.66;5153295;27;20046;-93
2022/08/21 09:31:53;;;;;;;6.70;3.85;;;;;;;28.33;46.14;98255.72;5146356;27;20567;-95
2022/08/21 09:34:26;;;;;;;5.50;3.60;;;;;;;28.14;44.06;98265.06;5153406;27;20039;-95
2022/08/21 09:36:53;;;;;;;5.70;3.38;;;;;;;27.98;44.12;98245.88;5143959;27;20038;-95
2022/08/21 09:39:25;;;;;;;8.75;4.03;;;;;;;28.07;46.17;98244.88;5140239;27;20031;-94
2022/08/21 09:41:57;;;;;;;5.55;3.80;;;;;;;28.35;46.51;98256.41;5148237;27;20061;-92
2022/08/21 09:44:27;;;;;;;6.32;3.67;;;;;;;28.56;44.99;98266.91;5146645;27;20063;-92
2022/08/21 09:46:54;;;;;;;8.13;4.45;;;;;;;28.72;44.71;98263.34;5149605;27;20043;-94
2022/08/21 09:49:28;;;;;;;6.57;3.90;;;;;;;28.71;45.19;98247.09;5154535;27;20047;-92
2022/08/21 09:51:55;;;;;;;8.50;3.58;;;;;;;28.74;43.46;98239.41;5151564;27;20764;-95
2022/08/21 09:54:28;;;;;;;8.77;3.65;;;;;;;28.90;43.06;98233.06;5138942;27;20035;-95
2022/08/21 10:00:15;;;;;;;4.68;3.33;;;;;;;29.25;41.85;98239.22;5188336;27;20374;-93
2022/08/21 10:02:41;;;;;;;4.70;2.80;;;;;;;29.34;41.87;98234.59;5153917;27;20051;-94
2022/08/21 10:05:16;;;;;;;4.95;2.72;;;;;;;29.42;37.51;98248.28;5153778;27;20527;-92
2022/08/21 10:07:42;;;;;;;4.60;2.30;;;;;;;29.40;37.17;98228.41;5140237;27;20035;-92
2022/08/21 10:10:15;;;;;;;3.78;2.35;;;;;;;29.53;36.37;98220.50;5152670;27;20035;-93
2022/08/21 10:12:49;;;;;;;5.22;2.60;;;;;;;29.60;37.25;98232.50;5154509;27;20508;-92
2022/08/21 10:15:22;;;;;;;4.25;2.33;;;;;;;29.18;35.87;98216.31;5153380;27;20130;-92
2022/08/21 10:18:03;;;;;;;5.93;2.20;;;;;;;29.03;34.59;98213.38;5133249;27;20042;-93
2022/08/21 10:20:37;;;;;;;4.25;2.45;;;;;;;29.03;35.97;98211.50;5132780;28;20057;-93
2022/08/21 10:23:15;;;;;;;3.97;2.20;;;;;;;28.82;35.80;98223.00;5133708;27;20036;-91
2022/08/21 10:25:46;;;;;;;4.72;2.58;;;;;;;29.08;36.55;98232.88;5132829;27;20046;-92
2022/08/21 10:28:23;;;;;;;5.80;2.20;;;;;;;29.07;36.68;98199.19;5133004;27;20079;-94
2022/08/21 10:30:57;;;;;;;6.18;2.55;;;;;;;28.93;35.40;98199.03;5143770;27;20046;-92
2022/08/21 10:33:35;;;;;;;3.40;2.20;;;;;;;28.96;35.30;98223.31;5133904;28;20042;-92
2022/08/21 10:36:09;;;;;;;3.83;2.20;;;;;;;28.90;36.19;98202.97;5139333;27;20046;-92
2022/08/21 10:38:58;;;;;;;4.80;2.45;;;;;;;28.65;36.26;98211.19;5136975;27;20067;-92
2022/08/21 10:41:36;;;;;;;2.95;2.22;;;;;;;28.55;36.09;98190.50;5136775;27;20043;-94
2022/08/21 10:44:12;;;;;;;5.93;2.60;;;;;;;28.99;36.42;98212.03;5136528;27;20400;-92
2022/08/21 10:46:49;;;;;;;4.45;2.40;;;;;;;29.16;38.37;98193.72;5132942;27;20043;-94
2022/08/21 10:49:23;;;;;;;3.47;2.40;;;;;;;29.10;35.81;98203.47;5133324;27;20074;-93
2022/08/21 10:51:58;;;;;;;5.57;2.40;;;;;;;29.38;37.17;98194.88;5132834;28;20104;-93
2022/08/21 10:54:37;;;;;;;3.33;2.40;;;;;;;29.47;35.57;98185.59;5136089;27;20070;-94
2022/08/21 10:57:09;;;;;;;6.75;2.55;;;;;;;29.56;36.41;98164.50;5153500;27;20042;-93
2022/08/21 10:59:49;;;;;;;3.55;2.47;;;;;;;29.86;37.10;98165.59;5152405;27;20115;-93
2022/08/21 11:02:22;;;;;;;4.20;2.50;;;;;;;29.61;36.21;98178.53;5145954;27;20059;-92
2022/08/21 11:04:55;;;;;;;5.85;2.63;;;;;;;29.76;35.39;98176.78;5134372;27;20046;-93
2022/08/21 11:07:28;;;;;;;4.18;2.40;;;;;;;29.82;34.93;98161.50;5139084;27;20126;-92
2022/08/21 11:09:57;;;;;;;3.67;2.50;;;;;;;29.52;35.21;98164.03;5140181;27;20057;-94
2022/08/21 11:12:29;;;;;;;5.50;2.67;;;;;;;29.54;35.77;98172.91;5129088;27;20516;-92
2022/08/21 11:15:00;;;;;;;6.75;2.90;;;;;;;29.60;34.73;98164.00;5131291;27;20039;-93
2022/08/21 11:17:34;;;;;;;4.25;2.40;;;;;;;29.36;35.52;98150.38;5123292;27;20135;-93
2022/08/21 11:20:05;;;;;;;5.95;2.90;;;;;;;29.08;35.93;98184.47;5117811;28;20040;-93
2022/08/21 11:22:38;;;;;;;4.88;2.60;;;;;;;28.81;35.66;98172.00;5118098;28;20093;-92
2022/08/21 11:25:10;;;;;;;4.65;2.78;;;;;;;29.05;36.43;98167.53;5117881;28;20050;-93
2022/08/21 11:27:43;;;;;;;4.70;2.50;;;;;;;29.35;36.91;98145.94;5118333;28;20043;-93
2022/08/21 11:30:10;;;;;;;4.80;2.80;;;;;;;29.64;34.85;98154.34;5127544;27;20039;-93
2022/08/21 11:32:54;;;;;;;5.35;2.80;;;;;;;29.71;34.74;98135.34;5132900;27;20546;-93
2022/08/21 11:35:30;;;;;;;5.45;2.67;;;;;;;29.83;35.31;98127.59;5117155;28;20054;-94
2022/08/21 11:38:10;;;;;;;6.35;3.10;;;;;;;29.85;34.48;98122.78;5121961;27;20092;-93
2022/08/21 11:40:54;;;;;;;5.35;2.88;;;;;;;29.46;35.06;98137.34;5127462;27;20046;-93
2022/08/21 11:43:30;;;;;;;5.28;2.80;;;;;;;29.75;34.42;98138.59;5138056;27;20063;-92
2022/08/21 11:46:01;;;;;;;5.53;2.60;;;;;;;29.82;34.26;98125.88;5137641;27;20100;-92